sensor_id;sensor_type;location;lat;lon;timestamp;P1;durP1;ratioP1;P2;durP2;ratioP2
11481;SDS011;5797;51.662;6.748;2023-11-22T00:00:38;13.00;;;8.40;;
11481;SDS011;5797;51.662;6.748;2023-11-22T00:03:06;14.23;;;8.07;;
11481;SDS011;5797;51.662;6.748;2023-11-22T00:05:35;15.67;;;8.60;;
11481;SDS011;5797;51.662;6.748;2023-11-22T00:08:04;11.73;;;7.53;;
11481;SDS011;5797;51.662;6.748;2023-11-22T00:10:33;15.17;;;8.30;;
11481;SDS011;5797;51.662;6.748;2023-11-22T00:13:02;17.00;;;8.67;;
11481;SDS011;5797;51.662;6.748;2023-11-22T00:15:31;12.67;;;8.00;;
11481;SDS011;5797;51.662;6.748;2023-11-22T00:18:00;14.70;;;7.93;;
11481;SDS011;5797;51.662;6.748;2023-11-22T00:20:30;14.30;;;7.43;;
11481;SDS011;5797;51.662;6.748;2023-11-22T00:23:00;13.20;;;7.50;;
11481;SDS011;5797;51.662;6.748;2023-11-22T00:25:30;13.30;;;7.60;;
11481;SDS011;5797;51.662;6.748;2023-11-22T00:27:59;13.57;;;8.07;;
11481;SDS011;5797;51.662;6.748;2023-11-22T00:30:28;16.13;;;7.60;;
11481;SDS011;5797;51.662;6.748;2023-11-22T00:32:56;15.67;;;7.43;;
11481;SDS011;5797;51.662;6.748;2023-11-22T00:35:27;16.00;;;8.53;;
11481;SDS011;5797;51.662;6.748;2023-11-22T00:37:56;12.73;;;7.43;;
11481;SDS011;5797;51.662;6.748;2023-11-22T00:40:25;14.67;;;8.10;;
11481;SDS011;5797;51.662;6.748;2023-11-22T00:42:53;15.23;;;8.13;;
11481;SDS011;5797;51.662;6.748;2023-11-22T00:45:22;15.40;;;8.33;;
11481;SDS011;5797;51.662;6.748;2023-11-22T00:47:50;13.37;;;7.83;;
11481;SDS011;5797;51.662;6.748;2023-11-22T00:50:19;15.60;;;7.97;;
11481;SDS011;5797;51.662;6.748;2023-11-22T00:52:49;16.47;;;7.93;;
11481;SDS011;5797;51.662;6.748;2023-11-22T00:55:17;14.17;;;7.87;;
11481;SDS011;5797;51.662;6.748;2023-11-22T00:57:46;12.80;;;7.47;;
11481;SDS011;5797;51.662;6.748;2023-11-22T01:00:15;19.67;;;8.67;;
11481;SDS011;5797;51.662;6.748;2023-11-22T01:02:44;15.00;;;8.47;;
11481;SDS011;5797;51.662;6.748;2023-11-22T01:05:12;16.07;;;7.27;;
11481;SDS011;5797;51.662;6.748;2023-11-22T01:07:42;15.37;;;8.00;;
11481;SDS011;5797;51.662;6.748;2023-11-22T01:10:12;16.03;;;8.63;;
11481;SDS011;5797;51.662;6.748;2023-11-22T01:12:42;16.40;;;8.20;;
11481;SDS011;5797;51.662;6.748;2023-11-22T01:15:10;16.37;;;7.93;;
11481;SDS011;5797;51.662;6.748;2023-11-22T01:17:39;17.50;;;8.13;;
11481;SDS011;5797;51.662;6.748;2023-11-22T01:20:08;16.33;;;8.60;;
11481;SDS011;5797;51.662;6.748;2023-11-22T01:22:38;17.47;;;8.27;;
11481;SDS011;5797;51.662;6.748;2023-11-22T01:25:07;12.50;;;7.30;;
11481;SDS011;5797;51.662;6.748;2023-11-22T01:27:37;13.43;;;6.90;;
11481;SDS011;5797;51.662;6.748;2023-11-22T01:30:06;14.90;;;7.63;;
11481;SDS011;5797;51.662;6.748;2023-11-22T01:32:35;14.20;;;8.07;;
11481;SDS011;5797;51.662;6.748;2023-11-22T01:35:04;15.67;;;8.63;;
11481;SDS011;5797;51.662;6.748;2023-11-22T01:37:33;15.73;;;8.37;;
11481;SDS011;5797;51.662;6.748;2023-11-22T01:40:02;12.93;;;7.93;;
11481;SDS011;5797;51.662;6.748;2023-11-22T01:42:31;16.10;;;8.67;;
11481;SDS011;5797;51.662;6.748;2023-11-22T01:45:01;15.47;;;8.40;;
11481;SDS011;5797;51.662;6.748;2023-11-22T01:47:30;14.10;;;8.40;;
11481;SDS011;5797;51.662;6.748;2023-11-22T01:49:57;13.90;;;7.63;;
11481;SDS011;5797;51.662;6.748;2023-11-22T01:52:26;15.13;;;8.47;;
11481;SDS011;5797;51.662;6.748;2023-11-22T01:54:55;16.70;;;9.00;;
11481;SDS011;5797;51.662;6.748;2023-11-22T01:57:25;15.17;;;8.60;;
11481;SDS011;5797;51.662;6.748;2023-11-22T01:59:53;16.03;;;8.47;;
11481;SDS011;5797;51.662;6.748;2023-11-22T02:02:23;21.80;;;8.87;;
11481;SDS011;5797;51.662;6.748;2023-11-22T02:04:52;16.73;;;8.93;;
11481;SDS011;5797;51.662;6.748;2023-11-22T02:07:20;13.93;;;8.03;;
11481;SDS011;5797;51.662;6.748;2023-11-22T02:09:49;18.87;;;9.03;;
11481;SDS011;5797;51.662;6.748;2023-11-22T02:12:19;16.37;;;8.63;;
11481;SDS011;5797;51.662;6.748;2023-11-22T02:14:48;15.50;;;8.30;;
11481;SDS011;5797;51.662;6.748;2023-11-22T02:17:17;16.17;;;9.00;;
11481;SDS011;5797;51.662;6.748;2023-11-22T02:19:47;17.07;;;8.60;;
11481;SDS011;5797;51.662;6.748;2023-11-22T02:22:15;15.17;;;8.33;;
11481;SDS011;5797;51.662;6.748;2023-11-22T02:24:45;16.53;;;8.83;;
11481;SDS011;5797;51.662;6.748;2023-11-22T02:27:14;15.13;;;8.50;;
11481;SDS011;5797;51.662;6.748;2023-11-22T02:29:42;16.00;;;8.90;;
11481;SDS011;5797;51.662;6.748;2023-11-22T02:32:11;14.13;;;8.13;;
11481;SDS011;5797;51.662;6.748;2023-11-22T02:34:40;16.60;;;8.70;;
11481;SDS011;5797;51.662;6.748;2023-11-22T02:37:08;16.10;;;8.53;;
11481;SDS011;5797;51.662;6.748;2023-11-22T02:39:40;15.43;;;8.23;;
11481;SDS011;5797;51.662;6.748;2023-11-22T02:42:15;13.43;;;7.83;;
11481;SDS011;5797;51.662;6.748;2023-11-22T02:44:45;14.40;;;8.13;;
11481;SDS011;5797;51.662;6.748;2023-11-22T02:47:15;16.13;;;8.30;;
11481;SDS011;5797;51.662;6.748;2023-11-22T02:49:44;16.83;;;8.57;;
11481;SDS011;5797;51.662;6.748;2023-11-22T02:52:12;15.47;;;8.57;;
11481;SDS011;5797;51.662;6.748;2023-11-22T02:54:42;16.70;;;8.73;;
11481;SDS011;5797;51.662;6.748;2023-11-22T02:57:12;13.77;;;7.57;;
11481;SDS011;5797;51.662;6.748;2023-11-22T02:59:42;17.37;;;8.90;;
11481;SDS011;5797;51.662;6.748;2023-11-22T03:02:12;14.93;;;8.57;;
11481;SDS011;5797;51.662;6.748;2023-11-22T03:04:41;14.43;;;8.30;;
11481;SDS011;5797;51.662;6.748;2023-11-22T03:07:10;13.43;;;7.77;;
11481;SDS011;5797;51.662;6.748;2023-11-22T03:09:38;14.80;;;8.43;;
11481;SDS011;5797;51.662;6.748;2023-11-22T03:12:08;16.27;;;8.97;;
11481;SDS011;5797;51.662;6.748;2023-11-22T03:14:36;15.73;;;8.43;;
11481;SDS011;5797;51.662;6.748;2023-11-22T03:17:06;15.43;;;8.63;;
11481;SDS011;5797;51.662;6.748;2023-11-22T03:19:35;14.93;;;9.07;;
11481;SDS011;5797;51.662;6.748;2023-11-22T03:22:03;15.47;;;8.37;;
11481;SDS011;5797;51.662;6.748;2023-11-22T03:24:34;15.17;;;7.83;;
11481;SDS011;5797;51.662;6.748;2023-11-22T03:27:04;15.37;;;8.53;;
11481;SDS011;5797;51.662;6.748;2023-11-22T03:29:33;15.33;;;8.20;;
11481;SDS011;5797;51.662;6.748;2023-11-22T03:32:02;13.73;;;8.23;;
11481;SDS011;5797;51.662;6.748;2023-11-22T03:34:32;15.73;;;8.33;;
11481;SDS011;5797;51.662;6.748;2023-11-22T03:37:00;16.00;;;7.73;;
11481;SDS011;5797;51.662;6.748;2023-11-22T03:39:29;18.20;;;8.50;;
11481;SDS011;5797;51.662;6.748;2023-11-22T03:41:58;15.67;;;8.90;;
11481;SDS011;5797;51.662;6.748;2023-11-22T03:44:26;15.00;;;8.27;;
11481;SDS011;5797;51.662;6.748;2023-11-22T03:46:56;14.93;;;8.00;;
11481;SDS011;5797;51.662;6.748;2023-11-22T03:49:24;14.87;;;7.67;;
11481;SDS011;5797;51.662;6.748;2023-11-22T03:51:54;13.23;;;7.60;;
11481;SDS011;5797;51.662;6.748;2023-11-22T03:54:22;17.70;;;8.53;;
11481;SDS011;5797;51.662;6.748;2023-11-22T03:56:51;15.90;;;8.07;;
11481;SDS011;5797;51.662;6.748;2023-11-22T03:59:20;17.33;;;8.50;;
11481;SDS011;5797;51.662;6.748;2023-11-22T04:01:48;14.53;;;8.33;;
11481;SDS011;5797;51.662;6.748;2023-11-22T04:04:17;18.73;;;8.93;;
11481;SDS011;5797;51.662;6.748;2023-11-22T04:06:47;19.47;;;9.10;;
11481;SDS011;5797;51.662;6.748;2023-11-22T04:09:17;23.97;;;12.50;;
11481;SDS011;5797;51.662;6.748;2023-11-22T04:11:47;28.20;;;14.93;;
11481;SDS011;5797;51.662;6.748;2023-11-22T04:14:15;26.53;;;13.90;;
11481;SDS011;5797;51.662;6.748;2023-11-22T04:16:47;33.73;;;16.73;;
11481;SDS011;5797;51.662;6.748;2023-11-22T04:19:16;33.97;;;16.87;;
11481;SDS011;5797;51.662;6.748;2023-11-22T04:21:43;24.80;;;13.13;;
11481;SDS011;5797;51.662;6.748;2023-11-22T04:24:12;19.17;;;10.30;;
11481;SDS011;5797;51.662;6.748;2023-11-22T04:26:42;17.23;;;8.80;;
11481;SDS011;5797;51.662;6.748;2023-11-22T04:29:11;20.80;;;10.70;;
11481;SDS011;5797;51.662;6.748;2023-11-22T04:31:39;24.30;;;13.50;;
11481;SDS011;5797;51.662;6.748;2023-11-22T04:34:08;24.33;;;13.33;;
11481;SDS011;5797;51.662;6.748;2023-11-22T04:36:36;26.97;;;13.80;;
11481;SDS011;5797;51.662;6.748;2023-11-22T04:39:05;23.90;;;13.47;;
11481;SDS011;5797;51.662;6.748;2023-11-22T04:41:35;25.17;;;12.33;;
11481;SDS011;5797;51.662;6.748;2023-11-22T04:44:05;22.63;;;12.07;;
11481;SDS011;5797;51.662;6.748;2023-11-22T04:46:33;18.10;;;9.73;;
11481;SDS011;5797;51.662;6.748;2023-11-22T04:49:02;16.90;;;8.77;;
11481;SDS011;5797;51.662;6.748;2023-11-22T04:51:30;15.40;;;8.93;;
11481;SDS011;5797;51.662;6.748;2023-11-22T04:53:59;20.40;;;10.40;;
11481;SDS011;5797;51.662;6.748;2023-11-22T04:56:27;22.90;;;10.33;;
11481;SDS011;5797;51.662;6.748;2023-11-22T04:58:56;22.33;;;10.47;;
11481;SDS011;5797;51.662;6.748;2023-11-22T05:01:32;19.47;;;9.43;;
11481;SDS011;5797;51.662;6.748;2023-11-22T05:04:01;19.03;;;9.83;;
11481;SDS011;5797;51.662;6.748;2023-11-22T05:06:30;18.47;;;10.53;;
11481;SDS011;5797;51.662;6.748;2023-11-22T05:08:58;17.50;;;9.63;;
11481;SDS011;5797;51.662;6.748;2023-11-22T05:11:27;18.33;;;9.00;;
11481;SDS011;5797;51.662;6.748;2023-11-22T05:13:55;16.53;;;8.60;;
11481;SDS011;5797;51.662;6.748;2023-11-22T05:16:23;17.03;;;9.07;;
11481;SDS011;5797;51.662;6.748;2023-11-22T05:18:53;19.07;;;8.83;;
11481;SDS011;5797;51.662;6.748;2023-11-22T05:21:22;17.50;;;8.73;;
11481;SDS011;5797;51.662;6.748;2023-11-22T05:23:50;13.70;;;8.43;;
11481;SDS011;5797;51.662;6.748;2023-11-22T05:26:20;15.10;;;8.60;;
11481;SDS011;5797;51.662;6.748;2023-11-22T05:28:48;14.93;;;8.67;;
11481;SDS011;5797;51.662;6.748;2023-11-22T05:31:17;15.87;;;9.03;;
11481;SDS011;5797;51.662;6.748;2023-11-22T05:33:47;19.27;;;9.23;;
11481;SDS011;5797;51.662;6.748;2023-11-22T05:36:16;15.40;;;8.83;;
11481;SDS011;5797;51.662;6.748;2023-11-22T05:38:45;18.83;;;9.77;;
11481;SDS011;5797;51.662;6.748;2023-11-22T05:41:13;14.90;;;8.87;;
11481;SDS011;5797;51.662;6.748;2023-11-22T05:43:42;14.53;;;7.90;;
11481;SDS011;5797;51.662;6.748;2023-11-22T05:46:11;14.57;;;7.87;;
11481;SDS011;5797;51.662;6.748;2023-11-22T05:48:39;16.43;;;7.97;;
11481;SDS011;5797;51.662;6.748;2023-11-22T05:51:08;15.40;;;8.40;;
11481;SDS011;5797;51.662;6.748;2023-11-22T05:53:38;17.10;;;8.03;;
11481;SDS011;5797;51.662;6.748;2023-11-22T05:56:06;18.67;;;9.20;;
11481;SDS011;5797;51.662;6.748;2023-11-22T05:58:35;13.40;;;7.80;;
11481;SDS011;5797;51.662;6.748;2023-11-22T06:01:05;15.13;;;7.90;;
11481;SDS011;5797;51.662;6.748;2023-11-22T06:03:34;17.40;;;8.13;;
11481;SDS011;5797;51.662;6.748;2023-11-22T06:06:03;21.00;;;9.00;;
11481;SDS011;5797;51.662;6.748;2023-11-22T06:08:31;19.27;;;10.20;;
11481;SDS011;5797;51.662;6.748;2023-11-22T06:11:01;19.57;;;9.70;;
11481;SDS011;5797;51.662;6.748;2023-11-22T06:13:30;17.53;;;9.13;;
11481;SDS011;5797;51.662;6.748;2023-11-22T06:15:59;15.33;;;9.03;;
11481;SDS011;5797;51.662;6.748;2023-11-22T06:18:28;18.67;;;9.50;;
11481;SDS011;5797;51.662;6.748;2023-11-22T06:20:57;19.87;;;9.97;;
11481;SDS011;5797;51.662;6.748;2023-11-22T06:23:25;18.03;;;9.90;;
11481;SDS011;5797;51.662;6.748;2023-11-22T06:25:55;17.30;;;9.80;;
11481;SDS011;5797;51.662;6.748;2023-11-22T06:28:25;14.90;;;8.27;;
11481;SDS011;5797;51.662;6.748;2023-11-22T06:30:53;13.67;;;7.20;;
11481;SDS011;5797;51.662;6.748;2023-11-22T06:33:22;14.83;;;7.77;;
11481;SDS011;5797;51.662;6.748;2023-11-22T06:35:51;15.23;;;7.50;;
11481;SDS011;5797;51.662;6.748;2023-11-22T06:38:19;14.43;;;7.83;;
11481;SDS011;5797;51.662;6.748;2023-11-22T06:40:48;12.80;;;7.20;;
11481;SDS011;5797;51.662;6.748;2023-11-22T06:43:17;14.77;;;7.50;;
11481;SDS011;5797;51.662;6.748;2023-11-22T06:45:46;13.20;;;6.77;;
11481;SDS011;5797;51.662;6.748;2023-11-22T06:48:15;14.00;;;6.93;;
11481;SDS011;5797;51.662;6.748;2023-11-22T06:50:44;11.83;;;7.10;;
11481;SDS011;5797;51.662;6.748;2023-11-22T06:53:12;12.50;;;7.10;;
11481;SDS011;5797;51.662;6.748;2023-11-22T06:55:41;14.43;;;7.20;;
11481;SDS011;5797;51.662;6.748;2023-11-22T06:58:09;9.27;;;5.43;;
11481;SDS011;5797;51.662;6.748;2023-11-22T07:00:38;9.47;;;5.43;;
11481;SDS011;5797;51.662;6.748;2023-11-22T07:03:08;9.37;;;5.53;;
11481;SDS011;5797;51.662;6.748;2023-11-22T07:05:37;10.00;;;6.07;;
11481;SDS011;5797;51.662;6.748;2023-11-22T07:08:06;7.27;;;4.77;;
11481;SDS011;5797;51.662;6.748;2023-11-22T07:10:35;8.13;;;4.97;;
11481;SDS011;5797;51.662;6.748;2023-11-22T07:13:04;9.43;;;5.57;;
11481;SDS011;5797;51.662;6.748;2023-11-22T07:15:32;7.40;;;5.10;;
11481;SDS011;5797;51.662;6.748;2023-11-22T07:18:01;6.80;;;4.70;;
11481;SDS011;5797;51.662;6.748;2023-11-22T07:20:32;9.33;;;5.40;;
11481;SDS011;5797;51.662;6.748;2023-11-22T07:23:00;9.17;;;5.70;;
11481;SDS011;5797;51.662;6.748;2023-11-22T07:25:29;10.73;;;6.27;;
11481;SDS011;5797;51.662;6.748;2023-11-22T07:27:58;11.40;;;6.60;;
11481;SDS011;5797;51.662;6.748;2023-11-22T07:30:27;10.23;;;5.87;;
11481;SDS011;5797;51.662;6.748;2023-11-22T07:32:57;9.17;;;6.00;;
11481;SDS011;5797;51.662;6.748;2023-11-22T07:35:28;10.87;;;6.37;;
11481;SDS011;5797;51.662;6.748;2023-11-22T07:37:57;11.03;;;6.43;;
11481;SDS011;5797;51.662;6.748;2023-11-22T07:40:26;12.53;;;6.50;;
11481;SDS011;5797;51.662;6.748;2023-11-22T07:42:54;13.20;;;7.30;;
11481;SDS011;5797;51.662;6.748;2023-11-22T07:45:23;11.10;;;6.77;;
11481;SDS011;5797;51.662;6.748;2023-11-22T07:47:51;10.23;;;6.37;;
11481;SDS011;5797;51.662;6.748;2023-11-22T07:50:20;9.73;;;6.27;;
11481;SDS011;5797;51.662;6.748;2023-11-22T07:52:51;8.90;;;5.50;;
11481;SDS011;5797;51.662;6.748;2023-11-22T07:55:21;10.47;;;5.83;;
11481;SDS011;5797;51.662;6.748;2023-11-22T07:57:50;10.37;;;6.10;;
11481;SDS011;5797;51.662;6.748;2023-11-22T08:00:20;9.00;;;5.40;;
11481;SDS011;5797;51.662;6.748;2023-11-22T08:02:49;9.83;;;6.10;;
11481;SDS011;5797;51.662;6.748;2023-11-22T08:05:21;10.60;;;5.77;;
11481;SDS011;5797;51.662;6.748;2023-11-22T08:07:50;9.27;;;6.40;;
11481;SDS011;5797;51.662;6.748;2023-11-22T08:10:20;9.60;;;5.90;;
11481;SDS011;5797;51.662;6.748;2023-11-22T08:12:49;8.30;;;5.33;;
11481;SDS011;5797;51.662;6.748;2023-11-22T08:15:18;10.83;;;5.63;;
11481;SDS011;5797;51.662;6.748;2023-11-22T08:17:47;10.30;;;6.23;;
11481;SDS011;5797;51.662;6.748;2023-11-22T08:20:16;10.00;;;6.03;;
11481;SDS011;5797;51.662;6.748;2023-11-22T08:22:45;10.37;;;6.20;;
11481;SDS011;5797;51.662;6.748;2023-11-22T08:25:16;8.93;;;5.70;;
11481;SDS011;5797;51.662;6.748;2023-11-22T08:27:47;10.60;;;6.63;;
11481;SDS011;5797;51.662;6.748;2023-11-22T08:30:15;9.63;;;6.20;;
11481;SDS011;5797;51.662;6.748;2023-11-22T08:32:45;9.87;;;6.23;;
11481;SDS011;5797;51.662;6.748;2023-11-22T08:35:20;11.00;;;7.40;;
11481;SDS011;5797;51.662;6.748;2023-11-22T08:37:50;13.80;;;7.00;;
11481;SDS011;5797;51.662;6.748;2023-11-22T08:40:19;9.17;;;7.00;;
11481;SDS011;5797;51.662;6.748;2023-11-22T08:42:49;14.63;;;6.87;;
11481;SDS011;5797;51.662;6.748;2023-11-22T08:45:18;15.27;;;9.07;;
11481;SDS011;5797;51.662;6.748;2023-11-22T08:47:46;19.47;;;10.70;;
11481;SDS011;5797;51.662;6.748;2023-11-22T08:50:17;19.03;;;10.30;;
11481;SDS011;5797;51.662;6.748;2023-11-22T08:52:47;21.17;;;11.00;;
11481;SDS011;5797;51.662;6.748;2023-11-22T08:55:15;22.27;;;10.90;;
11481;SDS011;5797;51.662;6.748;2023-11-22T08:57:44;19.90;;;10.67;;
11481;SDS011;5797;51.662;6.748;2023-11-22T09:00:15;18.00;;;11.00;;
11481;SDS011;5797;51.662;6.748;2023-11-22T09:02:49;18.00;;;9.47;;
11481;SDS011;5797;51.662;6.748;2023-11-22T09:05:18;19.60;;;9.47;;
11481;SDS011;5797;51.662;6.748;2023-11-22T09:07:47;17.70;;;9.47;;
11481;SDS011;5797;51.662;6.748;2023-11-22T09:10:18;16.57;;;9.10;;
11481;SDS011;5797;51.662;6.748;2023-11-22T09:12:49;19.80;;;8.67;;
11481;SDS011;5797;51.662;6.748;2023-11-22T09:15:19;15.13;;;8.50;;
11481;SDS011;5797;51.662;6.748;2023-11-22T09:17:53;15.30;;;8.37;;
11481;SDS011;5797;51.662;6.748;2023-11-22T09:20:22;14.77;;;8.00;;
11481;SDS011;5797;51.662;6.748;2023-11-22T09:22:51;18.10;;;8.73;;
11481;SDS011;5797;51.662;6.748;2023-11-22T09:25:22;13.83;;;8.20;;
11481;SDS011;5797;51.662;6.748;2023-11-22T09:27:51;14.63;;;7.70;;
11481;SDS011;5797;51.662;6.748;2023-11-22T09:30:24;15.63;;;8.67;;
11481;SDS011;5797;51.662;6.748;2023-11-22T09:33:05;13.30;;;7.67;;
11481;SDS011;5797;51.662;6.748;2023-11-22T09:35:35;16.53;;;8.57;;
11481;SDS011;5797;51.662;6.748;2023-11-22T09:38:04;17.07;;;9.17;;
11481;SDS011;5797;51.662;6.748;2023-11-22T09:40:38;13.40;;;7.73;;
11481;SDS011;5797;51.662;6.748;2023-11-22T09:43:09;15.67;;;8.70;;
11481;SDS011;5797;51.662;6.748;2023-11-22T09:45:39;16.60;;;8.63;;
11481;SDS011;5797;51.662;6.748;2023-11-22T09:48:09;17.90;;;8.53;;
11481;SDS011;5797;51.662;6.748;2023-11-22T09:50:45;16.87;;;8.87;;
11481;SDS011;5797;51.662;6.748;2023-11-22T09:53:19;16.07;;;8.60;;
11481;SDS011;5797;51.662;6.748;2023-11-22T09:55:51;20.03;;;9.40;;
11481;SDS011;5797;51.662;6.748;2023-11-22T09:58:19;16.23;;;8.30;;
11481;SDS011;5797;51.662;6.748;2023-11-22T10:00:49;15.63;;;7.83;;
11481;SDS011;5797;51.662;6.748;2023-11-22T10:03:19;19.83;;;8.93;;
11481;SDS011;5797;51.662;6.748;2023-11-22T10:05:48;16.03;;;8.27;;
11481;SDS011;5797;51.662;6.748;2023-11-22T10:08:16;16.93;;;8.43;;
11481;SDS011;5797;51.662;6.748;2023-11-22T10:10:45;15.60;;;8.70;;
11481;SDS011;5797;51.662;6.748;2023-11-22T10:13:18;18.33;;;8.97;;
11481;SDS011;5797;51.662;6.748;2023-11-22T10:15:47;14.80;;;7.97;;
11481;SDS011;5797;51.662;6.748;2023-11-22T10:18:17;14.90;;;8.17;;
11481;SDS011;5797;51.662;6.748;2023-11-22T10:20:46;19.13;;;8.63;;
11481;SDS011;5797;51.662;6.748;2023-11-22T10:23:16;17.47;;;8.47;;
11481;SDS011;5797;51.662;6.748;2023-11-22T10:25:46;16.23;;;8.87;;
11481;SDS011;5797;51.662;6.748;2023-11-22T10:28:16;18.70;;;8.83;;
11481;SDS011;5797;51.662;6.748;2023-11-22T10:30:45;14.33;;;8.20;;
11481;SDS011;5797;51.662;6.748;2023-11-22T10:33:15;16.43;;;8.20;;
11481;SDS011;5797;51.662;6.748;2023-11-22T10:35:47;13.87;;;8.33;;
11481;SDS011;5797;51.662;6.748;2023-11-22T10:38:16;14.20;;;8.60;;
11481;SDS011;5797;51.662;6.748;2023-11-22T10:40:44;13.57;;;8.10;;
11481;SDS011;5797;51.662;6.748;2023-11-22T10:43:15;14.07;;;8.57;;
11481;SDS011;5797;51.662;6.748;2023-11-22T10:45:44;14.70;;;7.57;;
11481;SDS011;5797;51.662;6.748;2023-11-22T10:48:17;15.23;;;8.30;;
11481;SDS011;5797;51.662;6.748;2023-11-22T10:50:46;13.80;;;7.87;;
11481;SDS011;5797;51.662;6.748;2023-11-22T10:53:15;13.97;;;7.10;;
11481;SDS011;5797;51.662;6.748;2023-11-22T10:55:45;13.43;;;8.10;;
11481;SDS011;5797;51.662;6.748;2023-11-22T10:58:14;15.37;;;8.43;;
11481;SDS011;5797;51.662;6.748;2023-11-22T11:00:44;16.13;;;8.37;;
11481;SDS011;5797;51.662;6.748;2023-11-22T11:03:17;15.37;;;7.70;;
11481;SDS011;5797;51.662;6.748;2023-11-22T11:05:49;13.83;;;7.73;;
11481;SDS011;5797;51.662;6.748;2023-11-22T11:08:19;12.77;;;7.13;;
11481;SDS011;5797;51.662;6.748;2023-11-22T11:10:49;12.43;;;7.20;;
11481;SDS011;5797;51.662;6.748;2023-11-22T11:13:17;13.90;;;8.00;;
11481;SDS011;5797;51.662;6.748;2023-11-22T11:15:46;14.47;;;7.77;;
11481;SDS011;5797;51.662;6.748;2023-11-22T11:18:16;16.20;;;7.00;;
11481;SDS011;5797;51.662;6.748;2023-11-22T11:20:46;12.33;;;6.40;;
11481;SDS011;5797;51.662;6.748;2023-11-22T11:23:16;13.40;;;8.20;;
11481;SDS011;5797;51.662;6.748;2023-11-22T11:25:47;14.63;;;7.63;;
11481;SDS011;5797;51.662;6.748;2023-11-22T11:28:16;12.27;;;6.40;;
11481;SDS011;5797;51.662;6.748;2023-11-22T11:30:45;10.63;;;6.30;;
11481;SDS011;5797;51.662;6.748;2023-11-22T11:33:17;10.77;;;6.40;;
11481;SDS011;5797;51.662;6.748;2023-11-22T11:35:47;12.53;;;6.93;;
11481;SDS011;5797;51.662;6.748;2023-11-22T11:38:17;10.77;;;6.40;;
11481;SDS011;5797;51.662;6.748;2023-11-22T11:40:48;10.87;;;6.20;;
11481;SDS011;5797;51.662;6.748;2023-11-22T11:43:20;12.83;;;6.73;;
11481;SDS011;5797;51.662;6.748;2023-11-22T11:45:49;10.50;;;6.13;;
11481;SDS011;5797;51.662;6.748;2023-11-22T11:48:20;10.00;;;6.10;;
11481;SDS011;5797;51.662;6.748;2023-11-22T11:51:20;11.60;;;6.43;;
11481;SDS011;5797;51.662;6.748;2023-11-22T11:54:00;10.70;;;6.03;;
11481;SDS011;5797;51.662;6.748;2023-11-22T11:56:29;11.27;;;6.13;;
11481;SDS011;5797;51.662;6.748;2023-11-22T11:58:59;9.30;;;5.83;;
11481;SDS011;5797;51.662;6.748;2023-11-22T12:01:27;9.33;;;5.33;;
11481;SDS011;5797;51.662;6.748;2023-11-22T12:04:01;8.23;;;4.70;;
11481;SDS011;5797;51.662;6.748;2023-11-22T12:06:30;7.70;;;4.37;;
11481;SDS011;5797;51.662;6.748;2023-11-22T12:09:03;12.53;;;4.77;;
11481;SDS011;5797;51.662;6.748;2023-11-22T12:11:31;9.47;;;5.10;;
11481;SDS011;5797;51.662;6.748;2023-11-22T12:13:59;6.43;;;4.33;;
11481;SDS011;5797;51.662;6.748;2023-11-22T12:16:30;8.03;;;4.07;;
11481;SDS011;5797;51.662;6.748;2023-11-22T12:19:02;8.13;;;4.10;;
11481;SDS011;5797;51.662;6.748;2023-11-22T12:21:31;7.17;;;4.33;;
11481;SDS011;5797;51.662;6.748;2023-11-22T12:24:00;9.97;;;4.27;;
11481;SDS011;5797;51.662;6.748;2023-11-22T12:26:29;6.63;;;4.17;;
11481;SDS011;5797;51.662;6.748;2023-11-22T12:29:00;6.97;;;3.70;;
11481;SDS011;5797;51.662;6.748;2023-11-22T12:31:31;6.10;;;3.70;;
11481;SDS011;5797;51.662;6.748;2023-11-22T12:34:03;7.67;;;3.90;;
11481;SDS011;5797;51.662;6.748;2023-11-22T12:36:32;6.03;;;4.17;;
11481;SDS011;5797;51.662;6.748;2023-11-22T12:39:03;6.67;;;3.90;;
11481;SDS011;5797;51.662;6.748;2023-11-22T12:41:35;6.47;;;3.77;;
11481;SDS011;5797;51.662;6.748;2023-11-22T12:44:04;7.73;;;4.17;;
11481;SDS011;5797;51.662;6.748;2023-11-22T12:46:46;7.33;;;4.73;;
11481;SDS011;5797;51.662;6.748;2023-11-22T12:49:24;9.20;;;5.03;;
11481;SDS011;5797;51.662;6.748;2023-11-22T12:51:53;9.63;;;5.47;;
11481;SDS011;5797;51.662;6.748;2023-11-22T12:54:22;7.50;;;4.97;;
11481;SDS011;5797;51.662;6.748;2023-11-22T12:56:51;8.90;;;4.17;;
11481;SDS011;5797;51.662;6.748;2023-11-22T12:59:26;8.40;;;4.60;;
11481;SDS011;5797;51.662;6.748;2023-11-22T13:01:57;9.37;;;4.53;;
11481;SDS011;5797;51.662;6.748;2023-11-22T13:04:29;11.37;;;5.03;;
11481;SDS011;5797;51.662;6.748;2023-11-22T13:06:58;7.80;;;4.80;;
11481;SDS011;5797;51.662;6.748;2023-11-22T13:09:27;10.80;;;5.43;;
11481;SDS011;5797;51.662;6.748;2023-11-22T13:11:59;10.00;;;5.13;;
11481;SDS011;5797;51.662;6.748;2023-11-22T13:14:27;9.53;;;5.43;;
11481;SDS011;5797;51.662;6.748;2023-11-22T13:16:59;9.63;;;5.30;;
11481;SDS011;5797;51.662;6.748;2023-11-22T13:19:27;6.33;;;4.33;;
11481;SDS011;5797;51.662;6.748;2023-11-22T13:21:57;7.57;;;4.37;;
11481;SDS011;5797;51.662;6.748;2023-11-22T13:24:26;8.00;;;4.73;;
11481;SDS011;5797;51.662;6.748;2023-11-22T13:26:54;8.10;;;4.10;;
11481;SDS011;5797;51.662;6.748;2023-11-22T13:29:22;8.63;;;4.33;;
11481;SDS011;5797;51.662;6.748;2023-11-22T13:31:51;6.43;;;4.07;;
11481;SDS011;5797;51.662;6.748;2023-11-22T13:34:19;8.27;;;4.17;;
11481;SDS011;5797;51.662;6.748;2023-11-22T13:36:49;9.07;;;5.27;;
11481;SDS011;5797;51.662;6.748;2023-11-22T13:39:18;6.70;;;4.37;;
11481;SDS011;5797;51.662;6.748;2023-11-22T13:41:46;9.27;;;4.53;;
11481;SDS011;5797;51.662;6.748;2023-11-22T13:44:16;9.97;;;4.43;;
11481;SDS011;5797;51.662;6.748;2023-11-22T13:46:46;11.03;;;4.63;;
11481;SDS011;5797;51.662;6.748;2023-11-22T13:49:15;8.67;;;4.40;;
11481;SDS011;5797;51.662;6.748;2023-11-22T13:51:44;7.90;;;4.87;;
11481;SDS011;5797;51.662;6.748;2023-11-22T13:54:14;8.63;;;4.47;;
11481;SDS011;5797;51.662;6.748;2023-11-22T13:56:44;7.03;;;4.27;;
11481;SDS011;5797;51.662;6.748;2023-11-22T13:59:13;11.37;;;5.10;;
11481;SDS011;5797;51.662;6.748;2023-11-22T14:01:41;10.07;;;5.20;;
11481;SDS011;5797;51.662;6.748;2023-11-22T14:04:10;7.40;;;4.63;;
11481;SDS011;5797;51.662;6.748;2023-11-22T14:06:39;14.07;;;4.93;;
11481;SDS011;5797;51.662;6.748;2023-11-22T14:09:08;8.17;;;4.90;;
11481;SDS011;5797;51.662;6.748;2023-11-22T14:11:41;9.20;;;5.27;;
11481;SDS011;5797;51.662;6.748;2023-11-22T14:14:09;6.83;;;4.37;;
11481;SDS011;5797;51.662;6.748;2023-11-22T14:16:40;8.13;;;4.07;;
11481;SDS011;5797;51.662;6.748;2023-11-22T14:19:11;10.00;;;4.30;;
11481;SDS011;5797;51.662;6.748;2023-11-22T14:21:40;8.40;;;3.73;;
11481;SDS011;5797;51.662;6.748;2023-11-22T14:24:09;7.63;;;3.97;;
11481;SDS011;5797;51.662;6.748;2023-11-22T14:26:37;5.47;;;3.40;;
11481;SDS011;5797;51.662;6.748;2023-11-22T14:29:07;10.90;;;4.60;;
11481;SDS011;5797;51.662;6.748;2023-11-22T14:31:36;8.20;;;4.20;;
11481;SDS011;5797;51.662;6.748;2023-11-22T14:34:04;6.33;;;4.07;;
11481;SDS011;5797;51.662;6.748;2023-11-22T14:36:33;8.17;;;3.97;;
11481;SDS011;5797;51.662;6.748;2023-11-22T14:39:03;7.07;;;4.07;;
11481;SDS011;5797;51.662;6.748;2023-11-22T14:41:34;6.63;;;3.83;;
11481;SDS011;5797;51.662;6.748;2023-11-22T14:44:03;8.80;;;3.80;;
11481;SDS011;5797;51.662;6.748;2023-11-22T14:46:33;8.13;;;3.50;;
11481;SDS011;5797;51.662;6.748;2023-11-22T14:49:03;4.90;;;3.23;;
11481;SDS011;5797;51.662;6.748;2023-11-22T14:51:33;6.23;;;3.60;;
11481;SDS011;5797;51.662;6.748;2023-11-22T14:54:01;5.70;;;3.67;;
11481;SDS011;5797;51.662;6.748;2023-11-22T14:56:30;8.53;;;3.83;;
11481;SDS011;5797;51.662;6.748;2023-11-22T14:58:58;5.43;;;3.17;;
11481;SDS011;5797;51.662;6.748;2023-11-22T15:01:28;7.00;;;3.50;;
11481;SDS011;5797;51.662;6.748;2023-11-22T15:03:59;4.67;;;3.13;;